McIntyre, Louisiana
Current Conditions -  °F | °C
As of 3:16 PM on Sunday 23 Nov 2014 (Local Time) from KMNE Reporting Station
Clear Clear  
Wind Chill: 72°   Ceiling: Unl
Heat Index: 72°   Visibility: 10mi
Dew Point: 57°   Wind: 13mph
Humidity: 60%   Direction: 190°S
Pressure: 29.43"   Gusts: 21mph
Location:  32.7093°N, 93.3068°W
Report Text: KMNE 232116Z AUTO 19011G18KT 10SM CLR 22/14 A2943 RMK AO2
Loading
Personal Weather Stations






























Interactive Weather Map New forecast layout! Learn more

10-Day Weather Forecast

Advertisements
Track Severe Weather on mobile